sensor_id;sensor_type;location;lat;lon;timestamp;P1;durP1;ratioP1;P2;durP2;ratioP2
16979;SDS011;42288;52.182;21.156;2023-05-07T00:01:48;4.23;;;2.70;;
16979;SDS011;42288;52.182;21.156;2023-05-07T00:04:14;4.60;;;2.60;;
16979;SDS011;42288;52.182;21.156;2023-05-07T00:06:39;4.77;;;2.93;;
16979;SDS011;42288;52.182;21.156;2023-05-07T00:09:05;5.40;;;3.00;;
16979;SDS011;42288;52.182;21.156;2023-05-07T00:11:31;5.00;;;3.00;;
16979;SDS011;42288;52.182;21.156;2023-05-07T00:13:58;6.97;;;3.63;;
16979;SDS011;42288;52.182;21.156;2023-05-07T00:16:23;4.17;;;3.07;;
16979;SDS011;42288;52.182;21.156;2023-05-07T00:18:49;3.80;;;2.80;;
16979;SDS011;42288;52.182;21.156;2023-05-07T00:21:15;6.60;;;2.70;;
16979;SDS011;42288;52.182;21.156;2023-05-07T00:23:41;5.40;;;3.10;;
16979;SDS011;42288;52.182;21.156;2023-05-07T00:26:06;5.53;;;2.90;;
16979;SDS011;42288;52.182;21.156;2023-05-07T00:28:32;6.03;;;2.97;;
16979;SDS011;42288;52.182;21.156;2023-05-07T00:30:57;6.07;;;2.90;;
16979;SDS011;42288;52.182;21.156;2023-05-07T00:33:23;5.53;;;2.70;;
16979;SDS011;42288;52.182;21.156;2023-05-07T00:35:49;4.67;;;2.63;;
16979;SDS011;42288;52.182;21.156;2023-05-07T00:38:15;5.23;;;2.77;;
16979;SDS011;42288;52.182;21.156;2023-05-07T00:40:40;6.17;;;2.93;;
16979;SDS011;42288;52.182;21.156;2023-05-07T00:43:06;6.63;;;2.83;;
16979;SDS011;42288;52.182;21.156;2023-05-07T00:45:32;5.23;;;2.80;;
16979;SDS011;42288;52.182;21.156;2023-05-07T00:48:01;6.47;;;3.37;;
16979;SDS011;42288;52.182;21.156;2023-05-07T00:50:28;6.77;;;3.30;;
16979;SDS011;42288;52.182;21.156;2023-05-07T00:52:54;4.67;;;3.10;;
16979;SDS011;42288;52.182;21.156;2023-05-07T00:55:21;6.17;;;3.30;;
16979;SDS011;42288;52.182;21.156;2023-05-07T00:57:47;5.50;;;2.90;;
16979;SDS011;42288;52.182;21.156;2023-05-07T01:00:13;5.93;;;3.13;;
16979;SDS011;42288;52.182;21.156;2023-05-07T01:02:39;4.23;;;2.70;;
16979;SDS011;42288;52.182;21.156;2023-05-07T01:05:05;6.50;;;3.13;;
16979;SDS011;42288;52.182;21.156;2023-05-07T01:07:34;3.33;;;2.40;;
16979;SDS011;42288;52.182;21.156;2023-05-07T01:10:01;4.53;;;2.50;;
16979;SDS011;42288;52.182;21.156;2023-05-07T01:12:28;5.33;;;2.73;;
16979;SDS011;42288;52.182;21.156;2023-05-07T01:14:55;4.50;;;2.33;;
16979;SDS011;42288;52.182;21.156;2023-05-07T01:17:20;5.10;;;2.90;;
16979;SDS011;42288;52.182;21.156;2023-05-07T01:19:46;4.00;;;2.53;;
16979;SDS011;42288;52.182;21.156;2023-05-07T01:22:13;5.13;;;2.90;;
16979;SDS011;42288;52.182;21.156;2023-05-07T01:24:41;4.60;;;2.77;;
16979;SDS011;42288;52.182;21.156;2023-05-07T01:27:07;7.97;;;3.10;;
16979;SDS011;42288;52.182;21.156;2023-05-07T01:29:32;4.17;;;2.27;;
16979;SDS011;42288;52.182;21.156;2023-05-07T01:31:59;7.10;;;3.60;;
16979;SDS011;42288;52.182;21.156;2023-05-07T01:34:26;3.97;;;2.20;;
16979;SDS011;42288;52.182;21.156;2023-05-07T01:36:55;4.20;;;2.60;;
16979;SDS011;42288;52.182;21.156;2023-05-07T01:39:26;4.73;;;2.70;;
16979;SDS011;42288;52.182;21.156;2023-05-07T01:41:53;4.43;;;2.57;;
16979;SDS011;42288;52.182;21.156;2023-05-07T01:44:21;3.57;;;2.63;;
16979;SDS011;42288;52.182;21.156;2023-05-07T01:46:47;4.40;;;2.50;;
16979;SDS011;42288;52.182;21.156;2023-05-07T01:49:13;3.87;;;2.60;;
16979;SDS011;42288;52.182;21.156;2023-05-07T01:51:39;6.97;;;2.90;;
16979;SDS011;42288;52.182;21.156;2023-05-07T01:54:05;4.20;;;2.70;;
16979;SDS011;42288;52.182;21.156;2023-05-07T01:56:31;4.20;;;2.63;;
16979;SDS011;42288;52.182;21.156;2023-05-07T01:58:57;3.90;;;2.47;;
16979;SDS011;42288;52.182;21.156;2023-05-07T02:01:22;4.23;;;2.50;;
16979;SDS011;42288;52.182;21.156;2023-05-07T02:03:48;4.53;;;2.73;;
16979;SDS011;42288;52.182;21.156;2023-05-07T02:06:14;4.13;;;2.57;;
16979;SDS011;42288;52.182;21.156;2023-05-07T02:08:40;5.47;;;2.50;;
16979;SDS011;42288;52.182;21.156;2023-05-07T02:11:05;5.97;;;2.60;;
16979;SDS011;42288;52.182;21.156;2023-05-07T02:13:32;2.43;;;2.03;;
16979;SDS011;42288;52.182;21.156;2023-05-07T02:15:58;3.77;;;2.50;;
16979;SDS011;42288;52.182;21.156;2023-05-07T02:18:24;5.77;;;2.40;;
16979;SDS011;42288;52.182;21.156;2023-05-07T02:20:49;5.60;;;2.77;;
16979;SDS011;42288;52.182;21.156;2023-05-07T02:23:15;3.70;;;2.50;;
16979;SDS011;42288;52.182;21.156;2023-05-07T02:25:40;4.53;;;2.70;;
16979;SDS011;42288;52.182;21.156;2023-05-07T02:28:06;4.17;;;2.60;;
16979;SDS011;42288;52.182;21.156;2023-05-07T02:30:32;3.73;;;2.60;;
16979;SDS011;42288;52.182;21.156;2023-05-07T02:32:58;6.03;;;2.97;;
16979;SDS011;42288;52.182;21.156;2023-05-07T02:35:26;6.00;;;2.53;;
16979;SDS011;42288;52.182;21.156;2023-05-07T02:37:51;5.67;;;2.53;;
16979;SDS011;42288;52.182;21.156;2023-05-07T02:40:17;5.30;;;2.90;;
16979;SDS011;42288;52.182;21.156;2023-05-07T02:42:43;6.37;;;2.80;;
16979;SDS011;42288;52.182;21.156;2023-05-07T02:45:08;3.17;;;2.27;;
16979;SDS011;42288;52.182;21.156;2023-05-07T02:47:34;4.43;;;2.30;;
16979;SDS011;42288;52.182;21.156;2023-05-07T02:50:00;4.03;;;2.50;;
16979;SDS011;42288;52.182;21.156;2023-05-07T02:52:26;4.73;;;2.10;;
16979;SDS011;42288;52.182;21.156;2023-05-07T02:54:51;4.50;;;2.77;;
16979;SDS011;42288;52.182;21.156;2023-05-07T02:57:17;2.90;;;2.20;;
16979;SDS011;42288;52.182;21.156;2023-05-07T02:59:43;4.83;;;2.40;;
16979;SDS011;42288;52.182;21.156;2023-05-07T03:02:08;2.97;;;1.93;;
16979;SDS011;42288;52.182;21.156;2023-05-07T03:04:34;4.27;;;2.37;;
16979;SDS011;42288;52.182;21.156;2023-05-07T03:07:00;3.83;;;2.07;;
16979;SDS011;42288;52.182;21.156;2023-05-07T03:09:25;3.47;;;2.37;;
16979;SDS011;42288;52.182;21.156;2023-05-07T03:11:51;4.93;;;2.00;;
16979;SDS011;42288;52.182;21.156;2023-05-07T03:14:17;3.00;;;2.03;;
16979;SDS011;42288;52.182;21.156;2023-05-07T03:16:42;3.60;;;2.30;;
16979;SDS011;42288;52.182;21.156;2023-05-07T03:19:08;3.43;;;1.97;;
16979;SDS011;42288;52.182;21.156;2023-05-07T03:21:33;5.30;;;2.20;;
16979;SDS011;42288;52.182;21.156;2023-05-07T03:23:59;3.63;;;2.30;;
16979;SDS011;42288;52.182;21.156;2023-05-07T03:26:25;5.57;;;2.27;;
16979;SDS011;42288;52.182;21.156;2023-05-07T03:28:51;3.97;;;2.10;;
16979;SDS011;42288;52.182;21.156;2023-05-07T03:31:17;3.93;;;2.20;;
16979;SDS011;42288;52.182;21.156;2023-05-07T03:33:55;3.57;;;2.13;;
16979;SDS011;42288;52.182;21.156;2023-05-07T03:36:22;3.00;;;1.93;;
16979;SDS011;42288;52.182;21.156;2023-05-07T03:38:48;3.67;;;2.00;;
16979;SDS011;42288;52.182;21.156;2023-05-07T03:41:15;2.93;;;2.00;;
16979;SDS011;42288;52.182;21.156;2023-05-07T03:43:41;2.97;;;2.20;;
16979;SDS011;42288;52.182;21.156;2023-05-07T03:46:06;3.97;;;2.17;;
16979;SDS011;42288;52.182;21.156;2023-05-07T03:48:32;3.47;;;2.00;;
16979;SDS011;42288;52.182;21.156;2023-05-07T03:50:58;3.17;;;1.93;;
16979;SDS011;42288;52.182;21.156;2023-05-07T03:53:24;4.40;;;2.37;;
16979;SDS011;42288;52.182;21.156;2023-05-07T03:55:49;4.20;;;2.10;;
16979;SDS011;42288;52.182;21.156;2023-05-07T03:58:15;4.83;;;2.30;;
16979;SDS011;42288;52.182;21.156;2023-05-07T04:00:41;3.03;;;1.87;;
16979;SDS011;42288;52.182;21.156;2023-05-07T04:03:07;2.50;;;2.10;;
16979;SDS011;42288;52.182;21.156;2023-05-07T04:05:33;2.63;;;1.97;;
16979;SDS011;42288;52.182;21.156;2023-05-07T04:07:59;4.00;;;2.50;;
16979;SDS011;42288;52.182;21.156;2023-05-07T04:10:25;2.73;;;1.93;;
16979;SDS011;42288;52.182;21.156;2023-05-07T04:12:50;3.83;;;2.03;;
16979;SDS011;42288;52.182;21.156;2023-05-07T04:15:16;3.97;;;2.00;;
16979;SDS011;42288;52.182;21.156;2023-05-07T04:17:42;3.47;;;1.97;;
16979;SDS011;42288;52.182;21.156;2023-05-07T04:20:14;4.60;;;2.13;;
16979;SDS011;42288;52.182;21.156;2023-05-07T04:22:41;3.20;;;2.23;;
16979;SDS011;42288;52.182;21.156;2023-05-07T04:25:07;2.47;;;1.90;;
16979;SDS011;42288;52.182;21.156;2023-05-07T04:27:34;3.23;;;2.17;;
16979;SDS011;42288;52.182;21.156;2023-05-07T04:30:00;3.87;;;2.20;;
16979;SDS011;42288;52.182;21.156;2023-05-07T04:32:26;3.37;;;2.30;;
16979;SDS011;42288;52.182;21.156;2023-05-07T04:34:51;5.20;;;2.10;;
16979;SDS011;42288;52.182;21.156;2023-05-07T04:37:17;5.37;;;1.90;;
16979;SDS011;42288;52.182;21.156;2023-05-07T04:39:43;3.63;;;2.23;;
16979;SDS011;42288;52.182;21.156;2023-05-07T04:42:08;3.87;;;2.07;;
16979;SDS011;42288;52.182;21.156;2023-05-07T04:44:34;3.97;;;2.10;;
16979;SDS011;42288;52.182;21.156;2023-05-07T04:47:02;3.17;;;2.40;;
16979;SDS011;42288;52.182;21.156;2023-05-07T04:49:27;4.37;;;2.37;;
16979;SDS011;42288;52.182;21.156;2023-05-07T04:51:53;3.33;;;2.00;;
16979;SDS011;42288;52.182;21.156;2023-05-07T04:54:18;2.60;;;1.80;;
16979;SDS011;42288;52.182;21.156;2023-05-07T04:56:44;3.77;;;2.60;;
16979;SDS011;42288;52.182;21.156;2023-05-07T04:59:09;4.93;;;2.20;;
16979;SDS011;42288;52.182;21.156;2023-05-07T05:01:35;6.60;;;2.07;;
16979;SDS011;42288;52.182;21.156;2023-05-07T05:04:01;4.37;;;2.30;;
16979;SDS011;42288;52.182;21.156;2023-05-07T05:06:26;2.90;;;2.20;;
16979;SDS011;42288;52.182;21.156;2023-05-07T05:08:52;3.73;;;1.90;;
16979;SDS011;42288;52.182;21.156;2023-05-07T05:11:17;2.90;;;1.90;;
16979;SDS011;42288;52.182;21.156;2023-05-07T05:13:43;3.37;;;2.00;;
16979;SDS011;42288;52.182;21.156;2023-05-07T05:16:09;2.80;;;1.80;;
16979;SDS011;42288;52.182;21.156;2023-05-07T05:18:35;2.30;;;1.80;;
16979;SDS011;42288;52.182;21.156;2023-05-07T05:21:00;3.70;;;1.97;;
16979;SDS011;42288;52.182;21.156;2023-05-07T05:23:26;4.03;;;2.10;;
16979;SDS011;42288;52.182;21.156;2023-05-07T05:25:55;3.60;;;1.63;;
16979;SDS011;42288;52.182;21.156;2023-05-07T05:28:22;2.30;;;1.73;;
16979;SDS011;42288;52.182;21.156;2023-05-07T05:30:48;2.53;;;1.77;;
16979;SDS011;42288;52.182;21.156;2023-05-07T05:33:14;2.43;;;1.70;;
16979;SDS011;42288;52.182;21.156;2023-05-07T05:35:39;3.80;;;2.00;;
16979;SDS011;42288;52.182;21.156;2023-05-07T05:38:05;3.00;;;1.63;;
16979;SDS011;42288;52.182;21.156;2023-05-07T05:40:31;2.17;;;1.60;;
16979;SDS011;42288;52.182;21.156;2023-05-07T05:42:57;3.73;;;1.47;;
16979;SDS011;42288;52.182;21.156;2023-05-07T05:45:22;3.33;;;1.90;;
16979;SDS011;42288;52.182;21.156;2023-05-07T05:47:48;2.90;;;1.80;;
16979;SDS011;42288;52.182;21.156;2023-05-07T05:50:14;3.37;;;1.93;;
16979;SDS011;42288;52.182;21.156;2023-05-07T05:52:39;2.90;;;1.50;;
16979;SDS011;42288;52.182;21.156;2023-05-07T05:55:06;2.57;;;1.50;;
16979;SDS011;42288;52.182;21.156;2023-05-07T05:57:31;2.93;;;1.80;;
16979;SDS011;42288;52.182;21.156;2023-05-07T05:59:57;3.90;;;1.60;;
16979;SDS011;42288;52.182;21.156;2023-05-07T06:02:23;6.83;;;2.00;;
16979;SDS011;42288;52.182;21.156;2023-05-07T06:04:48;2.60;;;1.60;;
16979;SDS011;42288;52.182;21.156;2023-05-07T06:07:14;3.50;;;2.07;;
16979;SDS011;42288;52.182;21.156;2023-05-07T06:09:40;5.37;;;1.70;;
16979;SDS011;42288;52.182;21.156;2023-05-07T06:12:05;2.00;;;1.60;;
16979;SDS011;42288;52.182;21.156;2023-05-07T06:14:31;3.30;;;1.90;;
16979;SDS011;42288;52.182;21.156;2023-05-07T06:16:56;2.00;;;1.67;;
16979;SDS011;42288;52.182;21.156;2023-05-07T06:19:22;2.83;;;1.70;;
16979;SDS011;42288;52.182;21.156;2023-05-07T06:21:49;3.10;;;1.50;;
16979;SDS011;42288;52.182;21.156;2023-05-07T06:24:15;2.43;;;1.80;;
16979;SDS011;42288;52.182;21.156;2023-05-07T06:26:40;1.70;;;1.47;;
16979;SDS011;42288;52.182;21.156;2023-05-07T06:29:06;5.40;;;1.70;;
16979;SDS011;42288;52.182;21.156;2023-05-07T06:31:31;2.57;;;1.30;;
16979;SDS011;42288;52.182;21.156;2023-05-07T06:33:58;2.43;;;1.70;;
16979;SDS011;42288;52.182;21.156;2023-05-07T06:36:24;4.37;;;1.60;;
16979;SDS011;42288;52.182;21.156;2023-05-07T06:38:50;3.67;;;1.67;;
16979;SDS011;42288;52.182;21.156;2023-05-07T06:41:15;3.13;;;1.60;;
16979;SDS011;42288;52.182;21.156;2023-05-07T06:43:41;2.50;;;1.50;;
16979;SDS011;42288;52.182;21.156;2023-05-07T06:46:06;3.10;;;1.77;;
16979;SDS011;42288;52.182;21.156;2023-05-07T06:48:32;3.00;;;1.70;;
16979;SDS011;42288;52.182;21.156;2023-05-07T06:50:57;3.63;;;1.70;;
16979;SDS011;42288;52.182;21.156;2023-05-07T06:53:23;2.37;;;1.53;;
16979;SDS011;42288;52.182;21.156;2023-05-07T06:55:49;3.53;;;1.77;;
16979;SDS011;42288;52.182;21.156;2023-05-07T06:58:15;2.23;;;1.53;;
16979;SDS011;42288;52.182;21.156;2023-05-07T07:00:40;2.73;;;1.60;;
16979;SDS011;42288;52.182;21.156;2023-05-07T07:03:06;3.80;;;1.73;;
16979;SDS011;42288;52.182;21.156;2023-05-07T07:05:32;3.40;;;1.50;;
16979;SDS011;42288;52.182;21.156;2023-05-07T07:07:57;2.23;;;1.50;;
16979;SDS011;42288;52.182;21.156;2023-05-07T07:10:23;4.20;;;1.57;;
16979;SDS011;42288;52.182;21.156;2023-05-07T07:12:49;1.93;;;1.40;;
16979;SDS011;42288;52.182;21.156;2023-05-07T07:15:15;2.93;;;1.90;;
16979;SDS011;42288;52.182;21.156;2023-05-07T07:17:41;2.23;;;1.70;;
16979;SDS011;42288;52.182;21.156;2023-05-07T07:20:07;2.40;;;1.50;;
16979;SDS011;42288;52.182;21.156;2023-05-07T07:22:33;1.80;;;1.60;;
16979;SDS011;42288;52.182;21.156;2023-05-07T07:24:59;3.20;;;1.50;;
16979;SDS011;42288;52.182;21.156;2023-05-07T07:27:24;2.57;;;1.70;;
16979;SDS011;42288;52.182;21.156;2023-05-07T07:29:50;2.83;;;1.67;;
16979;SDS011;42288;52.182;21.156;2023-05-07T07:32:16;2.53;;;1.67;;
16979;SDS011;42288;52.182;21.156;2023-05-07T07:34:41;2.27;;;1.70;;
16979;SDS011;42288;52.182;21.156;2023-05-07T07:37:07;1.70;;;1.57;;
16979;SDS011;42288;52.182;21.156;2023-05-07T07:39:33;3.17;;;1.70;;
16979;SDS011;42288;52.182;21.156;2023-05-07T07:41:58;3.57;;;1.57;;
16979;SDS011;42288;52.182;21.156;2023-05-07T07:44:24;3.53;;;2.07;;
16979;SDS011;42288;52.182;21.156;2023-05-07T07:46:50;2.47;;;1.67;;
16979;SDS011;42288;52.182;21.156;2023-05-07T07:49:16;1.73;;;1.37;;
16979;SDS011;42288;52.182;21.156;2023-05-07T07:51:42;2.80;;;1.83;;
16979;SDS011;42288;52.182;21.156;2023-05-07T07:54:08;2.70;;;1.90;;
16979;SDS011;42288;52.182;21.156;2023-05-07T07:56:34;2.60;;;1.80;;
16979;SDS011;42288;52.182;21.156;2023-05-07T07:59:00;2.73;;;1.90;;
16979;SDS011;42288;52.182;21.156;2023-05-07T08:01:26;3.13;;;1.90;;
16979;SDS011;42288;52.182;21.156;2023-05-07T08:03:52;3.10;;;1.70;;
16979;SDS011;42288;52.182;21.156;2023-05-07T08:06:17;2.37;;;1.60;;
16979;SDS011;42288;52.182;21.156;2023-05-07T08:08:43;3.27;;;1.70;;
16979;SDS011;42288;52.182;21.156;2023-05-07T08:11:09;2.87;;;1.40;;
16979;SDS011;42288;52.182;21.156;2023-05-07T08:13:35;2.30;;;1.70;;
16979;SDS011;42288;52.182;21.156;2023-05-07T08:16:01;2.20;;;1.67;;
16979;SDS011;42288;52.182;21.156;2023-05-07T08:18:27;4.00;;;2.20;;
16979;SDS011;42288;52.182;21.156;2023-05-07T08:20:54;3.73;;;1.90;;
16979;SDS011;42288;52.182;21.156;2023-05-07T08:23:19;2.43;;;1.80;;
16979;SDS011;42288;52.182;21.156;2023-05-07T08:25:46;3.70;;;1.57;;
16979;SDS011;42288;52.182;21.156;2023-05-07T08:28:11;3.00;;;2.50;;
16979;SDS011;42288;52.182;21.156;2023-05-07T08:30:37;4.70;;;2.50;;
16979;SDS011;42288;52.182;21.156;2023-05-07T08:33:02;5.10;;;3.20;;
16979;SDS011;42288;52.182;21.156;2023-05-07T08:35:28;2.50;;;1.80;;
16979;SDS011;42288;52.182;21.156;2023-05-07T08:37:54;2.83;;;1.60;;
16979;SDS011;42288;52.182;21.156;2023-05-07T08:40:20;2.53;;;1.60;;
16979;SDS011;42288;52.182;21.156;2023-05-07T08:42:49;4.37;;;2.00;;
16979;SDS011;42288;52.182;21.156;2023-05-07T08:45:17;3.43;;;1.60;;
16979;SDS011;42288;52.182;21.156;2023-05-07T08:47:50;3.23;;;1.80;;
16979;SDS011;42288;52.182;21.156;2023-05-07T08:50:20;2.80;;;1.77;;
16979;SDS011;42288;52.182;21.156;2023-05-07T08:52:46;2.33;;;1.83;;
16979;SDS011;42288;52.182;21.156;2023-05-07T08:55:12;3.83;;;1.60;;
16979;SDS011;42288;52.182;21.156;2023-05-07T08:57:38;3.63;;;1.60;;
16979;SDS011;42288;52.182;21.156;2023-05-07T09:00:04;3.60;;;1.67;;
16979;SDS011;42288;52.182;21.156;2023-05-07T09:02:32;5.10;;;1.87;;
16979;SDS011;42288;52.182;21.156;2023-05-07T09:04:58;2.53;;;1.40;;
16979;SDS011;42288;52.182;21.156;2023-05-07T09:07:23;4.27;;;1.80;;
16979;SDS011;42288;52.182;21.156;2023-05-07T09:09:50;2.43;;;1.50;;
16979;SDS011;42288;52.182;21.156;2023-05-07T09:12:17;2.13;;;1.40;;
16979;SDS011;42288;52.182;21.156;2023-05-07T09:14:43;3.27;;;1.87;;
16979;SDS011;42288;52.182;21.156;2023-05-07T09:17:09;3.57;;;1.80;;
16979;SDS011;42288;52.182;21.156;2023-05-07T09:19:35;3.97;;;2.10;;
16979;SDS011;42288;52.182;21.156;2023-05-07T09:22:01;2.37;;;1.47;;
16979;SDS011;42288;52.182;21.156;2023-05-07T09:24:28;2.73;;;1.87;;
16979;SDS011;42288;52.182;21.156;2023-05-07T09:26:58;2.47;;;1.60;;
16979;SDS011;42288;52.182;21.156;2023-05-07T09:29:25;2.73;;;1.60;;
16979;SDS011;42288;52.182;21.156;2023-05-07T09:31:51;5.10;;;1.50;;
16979;SDS011;42288;52.182;21.156;2023-05-07T09:34:16;2.57;;;1.60;;
16979;SDS011;42288;52.182;21.156;2023-05-07T09:36:42;5.30;;;1.67;;
16979;SDS011;42288;52.182;21.156;2023-05-07T09:39:07;3.40;;;1.70;;
16979;SDS011;42288;52.182;21.156;2023-05-07T09:41:36;3.10;;;1.47;;
16979;SDS011;42288;52.182;21.156;2023-05-07T09:44:09;3.83;;;1.70;;
16979;SDS011;42288;52.182;21.156;2023-05-07T09:46:34;2.93;;;1.47;;
16979;SDS011;42288;52.182;21.156;2023-05-07T09:49:03;1.60;;;1.43;;
16979;SDS011;42288;52.182;21.156;2023-05-07T09:51:38;3.63;;;1.40;;
16979;SDS011;42288;52.182;21.156;2023-05-07T09:54:10;2.03;;;1.60;;
16979;SDS011;42288;52.182;21.156;2023-05-07T09:56:36;3.73;;;2.13;;
16979;SDS011;42288;52.182;21.156;2023-05-07T09:59:03;3.17;;;1.70;;
16979;SDS011;42288;52.182;21.156;2023-05-07T10:01:31;2.10;;;1.40;;
16979;SDS011;42288;52.182;21.156;2023-05-07T10:03:57;4.13;;;1.87;;
16979;SDS011;42288;52.182;21.156;2023-05-07T10:06:24;3.03;;;1.87;;
16979;SDS011;42288;52.182;21.156;2023-05-07T10:08:50;3.10;;;1.70;;
16979;SDS011;42288;52.182;21.156;2023-05-07T10:11:17;3.30;;;1.30;;
16979;SDS011;42288;52.182;21.156;2023-05-07T10:13:43;4.33;;;1.40;;
16979;SDS011;42288;52.182;21.156;2023-05-07T10:16:09;4.00;;;1.60;;
16979;SDS011;42288;52.182;21.156;2023-05-07T10:18:35;2.30;;;1.43;;
16979;SDS011;42288;52.182;21.156;2023-05-07T10:21:04;5.57;;;1.77;;
16979;SDS011;42288;52.182;21.156;2023-05-07T10:23:33;3.90;;;1.33;;
16979;SDS011;42288;52.182;21.156;2023-05-07T10:26:00;3.90;;;1.70;;
16979;SDS011;42288;52.182;21.156;2023-05-07T10:28:29;3.37;;;1.50;;
16979;SDS011;42288;52.182;21.156;2023-05-07T10:34:12;6.43;;;2.53;;
16979;SDS011;42288;52.182;21.156;2023-05-07T10:36:41;3.40;;;1.93;;
16979;SDS011;42288;52.182;21.156;2023-05-07T10:39:08;3.90;;;1.73;;
16979;SDS011;42288;52.182;21.156;2023-05-07T10:41:34;2.70;;;2.00;;
16979;SDS011;42288;52.182;21.156;2023-05-07T10:44:00;3.77;;;1.87;;
16979;SDS011;42288;52.182;21.156;2023-05-07T10:46:27;3.97;;;1.73;;
16979;SDS011;42288;52.182;21.156;2023-05-07T10:51:33;3.33;;;1.80;;
16979;SDS011;42288;52.182;21.156;2023-05-07T10:56:37;4.90;;;1.83;;
16979;SDS011;42288;52.182;21.156;2023-05-07T11:04:15;1.97;;;1.50;;
16979;SDS011;42288;52.182;21.156;2023-05-07T11:06:42;2.93;;;1.40;;
16979;SDS011;42288;52.182;21.156;2023-05-07T11:12:16;5.37;;;1.40;;
16979;SDS011;42288;52.182;21.156;2023-05-07T11:15:02;3.17;;;1.40;;
16979;SDS011;42288;52.182;21.156;2023-05-07T11:17:29;2.23;;;1.60;;
16979;SDS011;42288;52.182;21.156;2023-05-07T11:19:59;4.20;;;1.60;;
16979;SDS011;42288;52.182;21.156;2023-05-07T11:25:01;4.90;;;1.60;;
16979;SDS011;42288;52.182;21.156;2023-05-07T11:27:28;3.47;;;1.27;;
16979;SDS011;42288;52.182;21.156;2023-05-07T11:29:54;3.10;;;1.67;;
16979;SDS011;42288;52.182;21.156;2023-05-07T11:32:23;4.10;;;1.53;;
16979;SDS011;42288;52.182;21.156;2023-05-07T11:34:56;3.20;;;1.80;;
16979;SDS011;42288;52.182;21.156;2023-05-07T11:37:24;3.37;;;1.70;;
16979;SDS011;42288;52.182;21.156;2023-05-07T11:39:51;3.13;;;1.50;;
16979;SDS011;42288;52.182;21.156;2023-05-07T11:42:29;3.13;;;1.60;;
16979;SDS011;42288;52.182;21.156;2023-05-07T11:44:55;4.23;;;1.80;;
16979;SDS011;42288;52.182;21.156;2023-05-07T11:47:21;5.13;;;1.53;;
16979;SDS011;42288;52.182;21.156;2023-05-07T11:49:47;3.80;;;1.60;;
16979;SDS011;42288;52.182;21.156;2023-05-07T11:52:14;3.13;;;1.60;;
16979;SDS011;42288;52.182;21.156;2023-05-07T11:54:40;2.40;;;1.70;;
16979;SDS011;42288;52.182;21.156;2023-05-07T11:57:06;2.73;;;2.00;;
16979;SDS011;42288;52.182;21.156;2023-05-07T11:59:41;3.10;;;1.77;;
16979;SDS011;42288;52.182;21.156;2023-05-07T12:02:09;4.33;;;1.70;;
16979;SDS011;42288;52.182;21.156;2023-05-07T12:04:35;1.90;;;1.53;;
16979;SDS011;42288;52.182;21.156;2023-05-07T12:07:01;3.87;;;1.80;;
16979;SDS011;42288;52.182;21.156;2023-05-07T12:09:26;3.13;;;1.47;;
16979;SDS011;42288;52.182;21.156;2023-05-07T12:11:52;3.10;;;1.40;;
16979;SDS011;42288;52.182;21.156;2023-05-07T12:14:18;3.27;;;1.80;;
16979;SDS011;42288;52.182;21.156;2023-05-07T12:16:44;2.47;;;1.43;;
16979;SDS011;42288;52.182;21.156;2023-05-07T12:19:10;3.50;;;1.47;;
16979;SDS011;42288;52.182;21.156;2023-05-07T12:21:39;4.00;;;1.80;;
16979;SDS011;42288;52.182;21.156;2023-05-07T12:24:05;3.97;;;1.83;;
16979;SDS011;42288;52.182;21.156;2023-05-07T12:26:33;4.20;;;1.57;;
16979;SDS011;42288;52.182;21.156;2023-05-07T12:29:03;2.47;;;1.50;;
16979;SDS011;42288;52.182;21.156;2023-05-07T12:31:28;5.13;;;1.67;;
16979;SDS011;42288;52.182;21.156;2023-05-07T12:33:54;3.70;;;1.63;;
16979;SDS011;42288;52.182;21.156;2023-05-07T12:36:20;2.23;;;1.60;;
16979;SDS011;42288;52.182;21.156;2023-05-07T12:38:46;2.13;;;1.60;;
16979;SDS011;42288;52.182;21.156;2023-05-07T12:41:15;3.03;;;1.40;;
16979;SDS011;42288;52.182;21.156;2023-05-07T12:43:43;4.83;;;1.60;;
16979;SDS011;42288;52.182;21.156;2023-05-07T12:46:09;2.93;;;1.50;;
16979;SDS011;42288;52.182;21.156;2023-05-07T12:48:38;4.17;;;1.40;;
16979;SDS011;42288;52.182;21.156;2023-05-07T12:51:10;3.50;;;2.67;;
16979;SDS011;42288;52.182;21.156;2023-05-07T12:53:41;2.33;;;1.60;;
16979;SDS011;42288;52.182;21.156;2023-05-07T12:56:07;2.33;;;1.60;;
16979;SDS011;42288;52.182;21.156;2023-05-07T12:58:34;3.17;;;1.90;;
16979;SDS011;42288;52.182;21.156;2023-05-07T13:01:04;7.43;;;2.10;;
16979;SDS011;42288;52.182;21.156;2023-05-07T13:03:32;5.03;;;2.00;;
16979;SDS011;42288;52.182;21.156;2023-05-07T13:06:02;4.17;;;2.00;;
16979;SDS011;42288;52.182;21.156;2023-05-07T13:08:34;6.23;;;1.90;;
16979;SDS011;42288;52.182;21.156;2023-05-07T13:11:06;1.83;;;1.37;;
16979;SDS011;42288;52.182;21.156;2023-05-07T13:13:33;2.17;;;1.30;;
16979;SDS011;42288;52.182;21.156;2023-05-07T13:16:00;2.87;;;1.53;;
16979;SDS011;42288;52.182;21.156;2023-05-07T13:18:29;2.03;;;1.40;;
16979;SDS011;42288;52.182;21.156;2023-05-07T13:20:55;2.93;;;1.33;;
16979;SDS011;42288;52.182;21.156;2023-05-07T13:23:21;3.63;;;1.70;;
16979;SDS011;42288;52.182;21.156;2023-05-07T13:25:47;4.50;;;1.50;;
16979;SDS011;42288;52.182;21.156;2023-05-07T13:28:13;1.67;;;1.30;;
16979;SDS011;42288;52.182;21.156;2023-05-07T13:30:39;5.40;;;1.67;;
16979;SDS011;42288;52.182;21.156;2023-05-07T13:33:05;3.03;;;1.60;;
16979;SDS011;42288;52.182;21.156;2023-05-07T13:35:31;1.77;;;1.40;;
16979;SDS011;42288;52.182;21.156;2023-05-07T13:37:57;5.13;;;1.70;;
16979;SDS011;42288;52.182;21.156;2023-05-07T13:40:22;3.73;;;1.30;;
16979;SDS011;42288;52.182;21.156;2023-05-07T13:42:48;4.27;;;1.53;;
16979;SDS011;42288;52.182;21.156;2023-05-07T13:45:14;2.87;;;1.50;;
16979;SDS011;42288;52.182;21.156;2023-05-07T13:47:40;6.00;;;1.67;;
16979;SDS011;42288;52.182;21.156;2023-05-07T13:50:07;3.13;;;1.30;;
16979;SDS011;42288;52.182;21.156;2023-05-07T13:52:34;1.98;;;1.30;;
16979;SDS011;42288;52.182;21.156;2023-05-07T13:54:59;2.85;;;1.45;;
16979;SDS011;42288;52.182;21.156;2023-05-07T13:57:25;2.40;;;1.30;;
16979;SDS011;42288;52.182;21.156;2023-05-07T13:59:50;3.67;;;1.30;;
16979;SDS011;42288;52.182;21.156;2023-05-07T14:02:25;3.20;;;1.20;;
16979;SDS011;42288;52.182;21.156;2023-05-07T14:04:50;1.67;;;1.40;;
16979;SDS011;42288;52.182;21.156;2023-05-07T14:07:16;5.47;;;1.70;;
16979;SDS011;42288;52.182;21.156;2023-05-07T14:09:42;3.17;;;1.30;;
16979;SDS011;42288;52.182;21.156;2023-05-07T14:12:07;2.30;;;1.37;;
16979;SDS011;42288;52.182;21.156;2023-05-07T14:14:33;2.38;;;1.50;;
16979;SDS011;42288;52.182;21.156;2023-05-07T14:16:58;4.97;;;1.50;;
16979;SDS011;42288;52.182;21.156;2023-05-07T14:19:24;2.37;;;1.50;;
16979;SDS011;42288;52.182;21.156;2023-05-07T14:21:49;2.83;;;1.30;;
16979;SDS011;42288;52.182;21.156;2023-05-07T14:24:15;1.73;;;1.30;;
16979;SDS011;42288;52.182;21.156;2023-05-07T14:26:41;2.90;;;1.50;;
16979;SDS011;42288;52.182;21.156;2023-05-07T14:29:06;3.13;;;1.40;;
16979;SDS011;42288;52.182;21.156;2023-05-07T14:31:32;1.80;;;1.30;;
16979;SDS011;42288;52.182;21.156;2023-05-07T14:33:58;3.17;;;1.40;;
16979;SDS011;42288;52.182;21.156;2023-05-07T14:36:24;2.17;;;1.47;;
16979;SDS011;42288;52.182;21.156;2023-05-07T14:38:51;2.93;;;1.80;;
16979;SDS011;42288;52.182;21.156;2023-05-07T14:41:19;3.43;;;1.63;;
16979;SDS011;42288;52.182;21.156;2023-05-07T14:43:46;3.27;;;1.40;;
16979;SDS011;42288;52.182;21.156;2023-05-07T14:46:15;2.60;;;1.47;;
16979;SDS011;42288;52.182;21.156;2023-05-07T14:48:44;2.83;;;1.60;;